Time;durP1;ratioP1;P1;durP2;ratioP2;P2;SDS_P1;SDS_P2;PMS_P1;PMS_P2;Temp;Humidity;BMP_temperature;BMP_pressure;BME280_temperature;BME280_humidity;BME280_pressure;Samples;Min_cycle;Max_cycle;Signal;HPM_P1;HPM_P2
2024/01/30 00:00:43;;;;;;;3.97;2.60;;;;;;;;;;6349347;28;20143;-82
2024/01/30 00:03:43;;;;;;;3.00;2.53;;;;;;;;;;6339597;28;20384;-83
2024/01/30 00:06:44;;;;;;;3.77;2.30;;;;;;;;;;6332982;28;20043;-83
2024/01/30 00:09:46;;;;;;;4.47;2.83;;;;;;;;;;6350656;28;20468;-82
2024/01/30 00:12:46;;;;;;;3.75;2.63;;;;;;;;;;6348185;28;20052;-82
2024/01/30 00:15:47;;;;;;;4.50;2.87;;;;;;;;;;6324194;28;20476;-83
2024/01/30 00:18:47;;;;;;;6.40;2.97;;;;;;;;;;6336890;28;20034;-82
2024/01/30 00:21:48;;;;;;;3.70;2.70;;;;;;;;;;6349621;28;20084;-82
2024/01/30 00:24:48;;;;;;;3.27;2.43;;;;;;;;;;6332538;28;20093;-82
2024/01/30 00:27:48;;;;;;;3.17;2.73;;;;;;;;;;6332460;28;20031;-89
2024/01/30 00:30:49;;;;;;;3.53;2.50;;;;;;;;;;6327656;28;20028;-90
2024/01/30 00:33:49;;;;;;;4.10;2.63;;;;;;;;;;6349274;28;20024;-90
2024/01/30 00:36:49;;;;;;;3.13;2.43;;;;;;;;;;6332612;28;20091;-90
2024/01/30 00:39:50;;;;;;;3.67;2.57;;;;;;;;;;6333871;28;20027;-91
2024/01/30 00:42:50;;;;;;;5.30;2.83;;;;;;;;;;6347913;28;20053;-89
2024/01/30 00:45:52;;;;;;;4.57;2.73;;;;;;;;;;6348944;28;20395;-91
2024/01/30 00:48:52;;;;;;;;;;;;;;;;;;6329788;28;20520;-90
2024/01/30 00:51:52;;;;;;;3.10;2.15;;;;;;;;;;6349382;28;19908;-90
2024/01/30 00:54:52;;;;;;;4.43;2.63;;;;;;;;;;6331153;28;20054;-90
2024/01/30 00:57:53;;;;;;;3.93;2.40;;;;;;;;;;6338305;28;20023;-90
2024/01/30 01:00:53;;;;;;;3.93;2.43;;;;;;;;;;6346671;28;20028;-91
2024/01/30 01:03:53;;;;;;;3.43;2.33;;;;;;;;;;6348133;28;20035;-90
2024/01/30 01:06:54;;;;;;;4.57;2.57;;;;;;;;;;6323656;28;20381;-90
2024/01/30 01:09:54;;;;;;;3.87;2.73;;;;;;;;;;6332521;28;20157;-91
2024/01/30 01:12:54;;;;;;;4.37;2.97;;;;;;;;;;6306534;28;20389;-89
2024/01/30 01:15:55;;;;;;;4.00;2.53;;;;;;;;;;6320358;28;20460;-90
2024/01/30 01:18:55;;;;;;;3.47;2.30;;;;;;;;;;6326246;28;20469;-90
2024/01/30 01:21:55;;;;;;;3.93;2.70;;;;;;;;;;6316774;28;20020;-91
2024/01/30 01:24:56;;;;;;;4.30;2.60;;;;;;;;;;6298231;28;20029;-90
2024/01/30 01:27:57;;;;;;;3.00;2.60;;;;;;;;;;6321554;28;20020;-89
2024/01/30 01:31:01;;;;;;;3.58;2.45;;;;;;;;;;6307292;28;20016;-91
2024/01/30 01:34:01;;;;;;;4.72;2.90;;;;;;;;;;6311658;28;20032;-90
2024/01/30 01:37:01;;;;;;;4.07;2.77;;;;;;;;;;6324810;28;20077;-91
2024/01/30 01:40:02;;;;;;;4.33;2.73;;;;;;;;;;6322229;28;20446;-90
2024/01/30 01:43:03;;;;;;;3.83;2.60;;;;;;;;;;6331698;28;20027;-90
2024/01/30 01:46:03;;;;;;;5.35;2.75;;;;;;;;;;6322965;28;20024;-89
2024/01/30 01:49:05;;;;;;;3.23;2.50;;;;;;;;;;6335276;28;20091;-89
2024/01/30 01:52:05;;;;;;;;;;;;;;;;;;6311991;28;20028;-90
2024/01/30 01:55:06;;;;;;;3.67;2.25;;;;;;;;;;6316629;28;19923;-89
2024/01/30 01:58:08;;;;;;;2.90;2.00;;;;;;;;;;6314780;28;20031;-89
2024/01/30 02:01:09;;;;;;;3.47;2.53;;;;;;;;;;6320595;28;20051;-90
2024/01/30 02:04:09;;;;;;;3.93;2.90;;;;;;;;;;6321399;28;20057;-90
2024/01/30 02:07:09;;;;;;;4.27;2.87;;;;;;;;;;6314010;28;20027;-89
2024/01/30 02:10:10;;;;;;;4.53;2.70;;;;;;;;;;6323218;28;20282;-90
2024/01/30 02:13:10;;;;;;;4.43;2.60;;;;;;;;;;6332895;28;20408;-89
2024/01/30 02:16:10;;;;;;;3.27;2.70;;;;;;;;;;6345600;28;20424;-88
2024/01/30 02:19:11;;;;;;;4.10;2.57;;;;;;;;;;6350231;28;20039;-90
2024/01/30 02:22:12;;;;;;;3.83;2.40;;;;;;;;;;6352261;28;20115;-90
2024/01/30 02:25:13;;;;;;;4.72;2.53;;;;;;;;;;6343634;28;20027;-90
2024/01/30 02:28:13;;;;;;;3.43;2.57;;;;;;;;;;6337757;28;20031;-89
2024/01/30 02:31:13;;;;;;;5.63;2.80;;;;;;;;;;6322655;28;20104;-90
2024/01/30 02:34:14;;;;;;;4.20;2.40;;;;;;;;;;6337584;28;20057;-90
2024/01/30 02:37:14;;;;;;;3.97;2.57;;;;;;;;;;6308286;28;20431;-90
2024/01/30 02:40:15;;;;;;;4.37;2.67;;;;;;;;;;6319761;28;20055;-90
2024/01/30 02:43:16;;;;;;;5.83;2.80;;;;;;;;;;6347140;28;20018;-89
2024/01/30 02:46:16;;;;;;;3.70;2.83;;;;;;;;;;6349097;28;20442;-90
2024/01/30 02:49:16;;;;;;;4.63;2.73;;;;;;;;;;6335676;28;20020;-82
2024/01/30 02:52:16;;;;;;;4.43;3.00;;;;;;;;;;6329538;28;20089;-82
2024/01/30 02:55:20;;;;;;;3.53;2.73;;;;;;;;;;6347129;28;20023;-82
2024/01/30 02:58:20;;;;;;;4.53;3.00;;;;;;;;;;6341865;28;20080;-84
2024/01/30 03:01:21;;;;;;;6.67;3.37;;;;;;;;;;6323319;28;20028;-82
2024/01/30 03:04:21;;;;;;;3.77;2.77;;;;;;;;;;6321317;28;20024;-82
2024/01/30 03:07:21;;;;;;;4.67;3.37;;;;;;;;;;6309642;28;20447;-82
2024/01/30 03:10:22;;;;;;;5.93;3.33;;;;;;;;;;6342392;28;20023;-82
2024/01/30 03:13:24;;;;;;;4.63;3.07;;;;;;;;;;6345207;28;20082;-82
2024/01/30 03:16:25;;;;;;;4.90;2.72;;;;;;;;;;6328852;28;20077;-82
2024/01/30 03:19:25;;;;;;;3.33;2.80;;;;;;;;;;6326239;28;20062;-81
2024/01/30 03:22:25;;;;;;;4.33;2.70;;;;;;;;;;6348048;28;20015;-82
2024/01/30 03:25:26;;;;;;;4.33;2.87;;;;;;;;;;6351844;28;20077;-82
2024/01/30 03:28:26;;;;;;;4.20;2.83;;;;;;;;;;6351455;28;20023;-81
2024/01/30 03:31:27;;;;;;;5.67;2.67;;;;;;;;;;6332891;28;20108;-82
2024/01/30 03:34:27;;;;;;;4.00;2.57;;;;;;;;;;6349698;28;20020;-82
2024/01/30 03:37:27;;;;;;;3.30;2.77;;;;;;;;;;6336603;28;20012;-82
2024/01/30 03:40:28;;;;;;;5.70;2.73;;;;;;;;;;6332308;28;20035;-82
2024/01/30 03:43:28;;;;;;;5.20;3.00;;;;;;;;;;6345221;28;20020;-82
2024/01/30 03:46:28;;;;;;;5.27;2.90;;;;;;;;;;6336077;28;20463;-82
2024/01/30 03:49:29;;;;;;;3.67;2.73;;;;;;;;;;6332384;28;20020;-80
2024/01/30 03:52:29;;;;;;;2.90;2.57;;;;;;;;;;6351177;28;20463;-82
2024/01/30 03:55:29;;;;;;;5.70;2.70;;;;;;;;;;6352290;28;20016;-82
2024/01/30 03:58:30;;;;;;;6.30;2.67;;;;;;;;;;6345823;28;20031;-89
2024/01/30 04:01:30;;;;;;;3.80;2.73;;;;;;;;;;6328245;28;20024;-90
2024/01/30 04:04:30;;;;;;;3.37;2.47;;;;;;;;;;6326825;28;20032;-90
2024/01/30 04:07:31;;;;;;;4.37;2.47;;;;;;;;;;6329697;28;20024;-89
2024/01/30 04:10:31;;;;;;;3.27;2.63;;;;;;;;;;6350241;28;20031;-90
2024/01/30 04:13:32;;;;;;;4.57;2.93;;;;;;;;;;6322894;28;20052;-89
2024/01/30 04:16:32;;;;;;;5.87;3.10;;;;;;;;;;6350008;28;20057;-85
2024/01/30 04:19:32;;;;;;;3.63;2.87;;;;;;;;;;6333589;28;20113;-85
2024/01/30 04:22:32;;;;;;;3.83;2.77;;;;;;;;;;6310206;28;20525;-84
2024/01/30 04:25:33;;;;;;;5.00;3.10;;;;;;;;;;6345855;28;20026;-85
2024/01/30 04:28:33;;;;;;;4.83;2.73;;;;;;;;;;6345550;28;20053;-85
2024/01/30 04:31:35;;;;;;;3.97;2.80;;;;;;;;;;6333663;28;20030;-85
2024/01/30 04:34:36;;;;;;;3.75;2.67;;;;;;;;;;6321243;28;20020;-85
2024/01/30 04:37:36;;;;;;;5.03;3.13;;;;;;;;;;6337886;28;20399;-84
2024/01/30 04:40:37;;;;;;;5.93;3.10;;;;;;;;;;6350165;28;20529;-84
2024/01/30 04:43:37;;;;;;;4.03;2.73;;;;;;;;;;6349067;28;20464;-85
2024/01/30 04:46:38;;;;;;;4.65;2.83;;;;;;;;;;6350830;28;20024;-85
2024/01/30 04:49:39;;;;;;;4.30;3.00;;;;;;;;;;6346865;28;20031;-85
2024/01/30 04:52:39;;;;;;;4.43;2.72;;;;;;;;;;6349512;28;20023;-85
2024/01/30 04:55:40;;;;;;;3.63;2.80;;;;;;;;;;6350398;28;20023;-85
2024/01/30 04:58:40;;;;;;;4.40;2.93;;;;;;;;;;6337204;28;20024;-86
2024/01/30 05:01:40;;;;;;;4.50;2.73;;;;;;;;;;6338122;28;20027;-85
2024/01/30 05:04:41;;;;;;;4.47;2.70;;;;;;;;;;6346234;28;20024;-85
2024/01/30 05:07:41;;;;;;;4.40;2.85;;;;;;;;;;6349368;28;20019;-81
2024/01/30 05:10:41;;;;;;;4.13;2.87;;;;;;;;;;6349631;28;20084;-81
2024/01/30 05:13:42;;;;;;;3.90;2.83;;;;;;;;;;6346917;28;20082;-82
2024/01/30 05:16:46;;;;;;;6.17;3.30;;;;;;;;;;6345544;28;20019;-82
2024/01/30 05:19:46;;;;;;;4.22;3.05;;;;;;;;;;6333834;28;20115;-81
2024/01/30 05:22:47;;;;;;;4.40;3.37;;;;;;;;;;6347346;28;20019;-81
2024/01/30 05:25:47;;;;;;;5.47;3.17;;;;;;;;;;6327909;28;20023;-81
2024/01/30 05:28:48;;;;;;;4.60;3.30;;;;;;;;;;6329180;28;20048;-82
2024/01/30 05:31:48;;;;;;;4.00;2.90;;;;;;;;;;6323819;28;20024;-81
2024/01/30 05:34:50;;;;;;;6.10;3.50;;;;;;;;;;6322158;28;20274;-81
2024/01/30 05:37:50;;;;;;;;;;;;;;;;;;6340306;28;20410;-82
2024/01/30 05:40:50;;;;;;;3.22;2.38;;;;;;;;;;6347076;28;19961;-82
2024/01/30 05:43:51;;;;;;;4.43;2.80;;;;;;;;;;6339933;28;20016;-81
2024/01/30 05:46:51;;;;;;;3.60;3.07;;;;;;;;;;6334793;28;20027;-81
2024/01/30 05:49:51;;;;;;;4.53;3.23;;;;;;;;;;6343960;28;20131;-81
2024/01/30 05:52:51;;;;;;;4.30;2.73;;;;;;;;;;6347000;28;20031;-81
2024/01/30 05:55:52;;;;;;;4.87;3.13;;;;;;;;;;6349091;28;20020;-81
2024/01/30 05:58:52;;;;;;;6.23;3.30;;;;;;;;;;6337680;28;20108;-81
2024/01/30 06:01:52;;;;;;;5.37;3.30;;;;;;;;;;6339607;28;20422;-82
2024/01/30 06:04:53;;;;;;;6.10;3.37;;;;;;;;;;6342319;28;20031;-82
2024/01/30 06:07:53;;;;;;;7.73;3.40;;;;;;;;;;6347391;28;20464;-81
2024/01/30 06:10:54;;;;;;;4.23;2.87;;;;;;;;;;6344629;28;20074;-82
2024/01/30 06:13:54;;;;;;;5.63;3.37;;;;;;;;;;6296595;28;20048;-81
2024/01/30 06:16:54;;;;;;;4.20;3.20;;;;;;;;;;6315931;28;20058;-81
2024/01/30 06:19:54;;;;;;;5.53;2.97;;;;;;;;;;6316305;28;20469;-81
2024/01/30 06:22:55;;;;;;;5.33;3.17;;;;;;;;;;6302462;28;20388;-82
2024/01/30 06:25:55;;;;;;;5.37;3.53;;;;;;;;;;6321864;28;20069;-82
2024/01/30 06:28:55;;;;;;;5.57;3.33;;;;;;;;;;6312506;28;20020;-85
2024/01/30 06:31:56;;;;;;;3.57;2.73;;;;;;;;;;6323928;28;20028;-85
2024/01/30 06:34:56;;;;;;;4.30;3.10;;;;;;;;;;6322012;28;20023;-85
2024/01/30 06:37:56;;;;;;;4.87;3.50;;;;;;;;;;6322080;28;20503;-85
2024/01/30 06:40:56;;;;;;;6.20;3.53;;;;;;;;;;6311541;28;20043;-84
2024/01/30 06:43:57;;;;;;;5.57;3.47;;;;;;;;;;6316692;28;20027;-85
2024/01/30 06:46:57;;;;;;;6.43;3.40;;;;;;;;;;6305836;28;20028;-85
2024/01/30 06:49:57;;;;;;;5.13;3.13;;;;;;;;;;6301175;28;20023;-85
2024/01/30 06:52:58;;;;;;;4.77;3.03;;;;;;;;;;6319823;28;20024;-85
2024/01/30 06:55:58;;;;;;;7.00;3.27;;;;;;;;;;6328360;28;20024;-85
2024/01/30 06:58:59;;;;;;;5.50;3.70;;;;;;;;;;6321676;28;20028;-86
2024/01/30 07:02:01;;;;;;;5.10;3.47;;;;;;;;;;6314511;28;20052;-86
2024/01/30 07:05:01;;;;;;;4.95;3.50;;;;;;;;;;6317259;28;20043;-86
2024/01/30 07:08:01;;;;;;;4.53;3.30;;;;;;;;;;6326788;28;20020;-86
2024/01/30 07:11:02;;;;;;;5.13;3.40;;;;;;;;;;6324392;28;20139;-86
2024/01/30 07:14:05;;;;;;;4.90;3.00;;;;;;;;;;6316732;28;20048;-87
2024/01/30 07:17:05;;;;;;;5.07;3.63;;;;;;;;;;6316341;28;20512;-87
2024/01/30 07:20:07;;;;;;;4.47;3.10;;;;;;;;;;6306096;28;20073;-87
2024/01/30 07:23:07;;;;;;;4.70;3.33;;;;;;;;;;6321453;28;20032;-88
2024/01/30 07:26:08;;;;;;;6.30;3.33;;;;;;;;;;6328944;28;20106;-90
2024/01/30 07:29:08;;;;;;;3.80;2.77;;;;;;;;;;6326457;28;20097;-83
2024/01/30 07:32:08;;;;;;;4.30;3.27;;;;;;;;;;6326340;28;20745;-84
2024/01/30 07:35:09;;;;;;;5.83;3.27;;;;;;;;;;6323294;28;20506;-83
2024/01/30 07:38:09;;;;;;;6.20;3.33;;;;;;;;;;6323626;28;20027;-84
2024/01/30 07:41:11;;;;;;;4.10;3.27;;;;;;;;;;6323854;28;20032;-85
2024/01/30 07:44:11;;;;;;;4.75;3.08;;;;;;;;;;6310794;28;20016;-85
2024/01/30 07:47:12;;;;;;;4.13;3.35;;;;;;;;;;6320894;28;20036;-85
2024/01/30 07:50:13;;;;;;;6.20;3.63;;;;;;;;;;6316981;28;20491;-84
2024/01/30 07:53:13;;;;;;;6.03;3.13;;;;;;;;;;6314912;28;20369;-85
2024/01/30 07:56:13;;;;;;;5.70;3.47;;;;;;;;;;6325252;28;20020;-85
2024/01/30 07:59:14;;;;;;;6.33;3.60;;;;;;;;;;6324708;28;20081;-86
2024/01/30 08:02:16;;;;;;;4.53;3.17;;;;;;;;;;6306567;28;20444;-84
2024/01/30 08:05:22;;;;;;;5.03;3.28;;;;;;;;;;6322854;28;20060;-87
2024/01/30 08:08:22;;;;;;;4.85;3.63;;;;;;;;;;6322859;28;20259;-86
2024/01/30 08:11:28;;;;;;;4.87;3.17;;;;;;;;;;6323287;28;20031;-86
2024/01/30 08:14:30;;;;;;;5.20;3.38;;;;;;;;;;6300564;28;20048;-88
2024/01/30 08:17:34;;;;;;;4.07;3.45;;;;;;;;;;6298458;28;20040;-89
2024/01/30 08:20:37;;;;;;;4.32;3.25;;;;;;;;;;6296338;28;20106;-88
2024/01/30 08:24:07;;;;;;;4.28;3.05;;;;;;;;;;6312757;28;20511;-88
2024/01/30 08:27:12;;;;;;;7.05;3.30;;;;;;;;;;6319269;28;20075;-83
2024/01/30 08:30:12;;;;;;;;;;;;;;;;;;6305681;28;20119;-85
2024/01/30 08:33:13;;;;;;;5.15;2.88;;;;;;;;;;6308250;28;19916;-85
2024/01/30 08:36:13;;;;;;;6.90;3.03;;;;;;;;;;6323600;28;20028;-85
2024/01/30 08:39:14;;;;;;;4.20;2.87;;;;;;;;;;6323601;28;20020;-85
2024/01/30 08:42:14;;;;;;;5.68;3.20;;;;;;;;;;6324032;28;20430;-85
2024/01/30 08:45:15;;;;;;;5.53;3.37;;;;;;;;;;6324013;28;20028;-84
2024/01/30 08:48:15;;;;;;;4.93;3.27;;;;;;;;;;6321550;28;20021;-84
2024/01/30 08:51:15;;;;;;;4.83;3.03;;;;;;;;;;6323769;28;20024;-84
2024/01/30 08:54:16;;;;;;;4.07;3.20;;;;;;;;;;6314673;28;20017;-83
2024/01/30 08:57:16;;;;;;;4.90;3.53;;;;;;;;;;6300104;28;20062;-84
2024/01/30 09:00:16;;;;;;;5.07;3.23;;;;;;;;;;6300610;28;20461;-84
2024/01/30 09:03:17;;;;;;;4.30;3.23;;;;;;;;;;6313248;28;20156;-83
2024/01/30 09:06:17;;;;;;;4.00;3.13;;;;;;;;;;6318450;28;20028;-84
2024/01/30 09:09:18;;;;;;;4.67;3.23;;;;;;;;;;6323278;28;20068;-81
2024/01/30 09:12:18;;;;;;;3.87;3.03;;;;;;;;;;6323559;28;20044;-82
2024/01/30 09:15:19;;;;;;;3.83;2.63;;;;;;;;;;6325586;28;20013;-81
2024/01/30 09:18:19;;;;;;;3.87;3.00;;;;;;;;;;6321957;28;20035;-81
2024/01/30 09:21:19;;;;;;;5.57;3.47;;;;;;;;;;6325223;28;20046;-82
2024/01/30 09:24:19;;;;;;;4.93;3.27;;;;;;;;;;6319117;28;20056;-84
2024/01/30 09:27:20;;;;;;;6.47;3.13;;;;;;;;;;6314096;28;20749;-83
2024/01/30 09:30:20;;;;;;;4.60;3.37;;;;;;;;;;6321907;28;20461;-84
2024/01/30 09:33:20;;;;;;;3.87;3.10;;;;;;;;;;6320988;28;20396;-83
2024/01/30 09:36:21;;;;;;;4.47;3.10;;;;;;;;;;6315143;28;20031;-83
2024/01/30 09:39:21;;;;;;;6.30;3.13;;;;;;;;;;6305345;28;20033;-83
2024/01/30 09:42:32;;;;;;;4.47;3.05;;;;;;;;;;5958263;28;10000226;-83
2024/01/30 09:45:32;;;;;;;4.90;3.67;;;;;;;;;;6319556;28;20065;-82
2024/01/30 09:48:33;;;;;;;4.10;2.83;;;;;;;;;;6323044;28;20027;-84
2024/01/30 09:51:34;;;;;;;4.55;3.38;;;;;;;;;;6329851;28;20115;-83
2024/01/30 09:54:34;;;;;;;5.00;3.30;;;;;;;;;;6318790;28;20032;-82
2024/01/30 09:57:35;;;;;;;4.97;3.20;;;;;;;;;;6314928;28;20107;-86
2024/01/30 10:00:35;;;;;;;3.97;3.10;;;;;;;;;;6323161;28;20040;-86
2024/01/30 10:03:36;;;;;;;3.73;3.20;;;;;;;;;;6321093;28;20028;-84
2024/01/30 10:06:38;;;;;;;4.43;3.40;;;;;;;;;;6317969;28;20027;-84
2024/01/30 10:09:38;;;;;;;5.10;3.10;;;;;;;;;;6318709;28;20020;-83
2024/01/30 10:12:40;;;;;;;4.47;2.90;;;;;;;;;;6304865;28;20070;-83
2024/01/30 10:15:44;;;;;;;;;;;;;;;;;;6322221;28;20481;-83
2024/01/30 10:18:48;;;;;;;3.80;2.63;;;;;;;;;;6319661;28;19950;-84
2024/01/30 10:21:48;;;;;;;3.88;2.65;;;;;;;;;;6302572;28;20029;-84
2024/01/30 10:24:51;;;;;;;3.33;2.43;;;;;;;;;;6316538;28;20012;-84
2024/01/30 10:27:56;;;;;;;7.07;3.58;;;;;;;;;;6321775;28;20709;-83
2024/01/30 10:31:01;;;;;;;4.75;3.03;;;;;;;;;;6322666;28;20480;-84
2024/01/30 10:34:01;;;;;;;4.40;3.13;;;;;;;;;;6321399;28;20020;-84
2024/01/30 10:37:17;;;;;;;4.10;3.27;;;;;;;;;;6303351;28;20123;-84
2024/01/30 10:40:21;;;;;;;3.92;3.00;;;;;;;;;;6321163;28;20042;-84
2024/01/30 10:43:32;;;;;;;5.15;3.47;;;;;;;;;;6316925;28;20571;-88
2024/01/30 10:46:34;;;;;;;5.32;3.05;;;;;;;;;;6312925;28;20032;-89
2024/01/30 10:49:56;;;;;;;4.55;3.28;;;;;;;;;;6320131;28;20026;-83
2024/01/30 10:52:58;;;;;;;3.50;2.40;;;;;;;;;;6320608;28;20016;-82
2024/01/30 10:55:59;;;;;;;4.25;2.88;;;;;;;;;;6321000;28;20028;-82
2024/01/30 10:58:59;;;;;;;4.10;3.10;;;;;;;;;;6322586;28;20036;-82
2024/01/30 11:02:00;;;;;;;3.93;3.00;;;;;;;;;;6319231;28;20486;-83
2024/01/30 11:05:04;;;;;;;4.37;3.07;;;;;;;;;;6318450;28;20102;-84
2024/01/30 11:08:14;;;;;;;3.33;2.80;;;;;;;;;;6312881;28;20025;-78
2024/01/30 11:11:16;;;;;;;4.30;2.97;;;;;;;;;;6300995;28;20028;-78
2024/01/30 11:14:16;;;;;;;4.75;3.08;;;;;;;;;;6296142;28;20101;-79
2024/01/30 11:17:17;;;;;;;4.30;2.80;;;;;;;;;;6317074;28;20016;-78
2024/01/30 11:20:20;;;;;;;4.28;2.80;;;;;;;;;;6314652;28;20090;-79
2024/01/30 11:23:22;;;;;;;3.53;2.88;;;;;;;;;;6321277;28;20110;-77
2024/01/30 11:26:27;;;;;;;4.60;3.05;;;;;;;;;;6295446;28;20111;-77
2024/01/30 11:29:27;;;;;;;4.07;2.92;;;;;;;;;;6321117;28;20024;-78
2024/01/30 11:32:28;;;;;;;2.93;2.63;;;;;;;;;;6321851;28;20035;-77
2024/01/30 11:35:29;;;;;;;3.57;2.87;;;;;;;;;;6320641;28;20024;-77
2024/01/30 11:38:29;;;;;;;4.82;3.17;;;;;;;;;;6325086;28;20024;-77
2024/01/30 11:41:30;;;;;;;4.80;3.20;;;;;;;;;;6326405;28;20031;-76
2024/01/30 11:44:30;;;;;;;3.37;2.90;;;;;;;;;;6320881;28;20067;-77
2024/01/30 11:47:30;;;;;;;4.23;2.60;;;;;;;;;;6316448;28;20020;-78
2024/01/30 11:50:31;;;;;;;4.87;3.00;;;;;;;;;;6325670;28;20019;-78
2024/01/30 11:53:31;;;;;;;3.77;2.87;;;;;;;;;;6323125;28;21117;-77
2024/01/30 11:56:32;;;;;;;3.43;2.70;;;;;;;;;;6327365;28;20274;-77
2024/01/30 11:59:32;;;;;;;4.93;2.83;;;;;;;;;;6327214;28;20040;-84
2024/01/30 12:02:32;;;;;;;4.33;2.97;;;;;;;;;;6320895;28;20381;-85
2024/01/30 12:05:33;;;;;;;5.53;2.57;;;;;;;;;;6309492;28;20032;-81
2024/01/30 12:08:33;;;;;;;3.93;2.93;;;;;;;;;;6325414;28;20035;-82
2024/01/30 12:14:39;;;;;;;4.60;2.83;;;;;;;;;;6347167;28;20044;-85
2024/01/30 12:17:40;;;;;;;4.03;2.97;;;;;;;;;;6333074;28;20080;-84
2024/01/30 12:20:40;;;;;;;4.40;2.90;;;;;;;;;;6348409;28;20080;-82
2024/01/30 12:23:40;;;;;;;3.50;2.97;;;;;;;;;;6342569;28;20024;-82
2024/01/30 12:26:42;;;;;;;3.73;2.80;;;;;;;;;;6345691;28;20027;-85
2024/01/30 12:29:43;;;;;;;5.40;2.95;;;;;;;;;;6339815;28;20034;-83
2024/01/30 12:32:45;;;;;;;4.82;2.72;;;;;;;;;;6328426;28;20043;-82
2024/01/30 12:35:46;;;;;;;4.07;2.70;;;;;;;;;;6350522;28;20369;-82
2024/01/30 12:38:46;;;;;;;3.40;2.47;;;;;;;;;;6349209;28;20529;-83
2024/01/30 12:41:46;;;;;;;4.27;3.13;;;;;;;;;;6352152;28;20634;-82
2024/01/30 12:44:47;;;;;;;3.60;3.00;;;;;;;;;;6349579;28;20019;-82
2024/01/30 12:47:47;;;;;;;3.27;2.67;;;;;;;;;;6350866;28;20019;-82
2024/01/30 12:50:47;;;;;;;4.73;3.33;;;;;;;;;;6349106;28;20153;-81
2024/01/30 12:53:48;;;;;;;5.43;3.40;;;;;;;;;;6330306;28;20047;-82
2024/01/30 12:56:48;;;;;;;4.53;2.87;;;;;;;;;;6326364;28;20051;-82
2024/01/30 12:59:49;;;;;;;4.03;2.87;;;;;;;;;;6332486;28;20035;-80
2024/01/30 13:02:49;;;;;;;4.17;2.83;;;;;;;;;;6350069;28;20460;-80
2024/01/30 13:05:49;;;;;;;6.03;2.77;;;;;;;;;;6348905;28;20016;-80
2024/01/30 13:08:49;;;;;;;3.97;3.10;;;;;;;;;;6325950;28;20023;-80
2024/01/30 13:11:50;;;;;;;4.47;2.93;;;;;;;;;;6349403;28;20023;-80
2024/01/30 13:14:51;;;;;;;3.90;2.97;;;;;;;;;;6349129;28;20023;-80
2024/01/30 13:17:54;;;;;;;4.40;2.97;;;;;;;;;;6348876;28;20459;-80
2024/01/30 13:20:54;;;;;;;3.47;2.85;;;;;;;;;;6348268;28;20020;-80
2024/01/30 13:23:54;;;;;;;3.97;3.07;;;;;;;;;;6343942;28;20072;-80
2024/01/30 13:26:55;;;;;;;3.97;3.17;;;;;;;;;;6349642;28;20012;-78
2024/01/30 13:29:55;;;;;;;4.17;2.73;;;;;;;;;;6338358;28;20149;-78
2024/01/30 13:32:55;;;;;;;3.40;2.60;;;;;;;;;;6350494;28;20019;-78
2024/01/30 13:35:55;;;;;;;4.07;2.87;;;;;;;;;;6333649;28;20052;-78
2024/01/30 13:38:56;;;;;;;5.03;3.03;;;;;;;;;;6347602;28;20084;-78
2024/01/30 13:41:56;;;;;;;4.23;2.63;;;;;;;;;;6347873;28;20030;-78
2024/01/30 13:44:56;;;;;;;4.67;2.63;;;;;;;;;;6349124;28;20026;-78
2024/01/30 13:47:57;;;;;;;4.40;3.00;;;;;;;;;;6329782;28;20047;-78
2024/01/30 13:50:57;;;;;;;3.53;2.73;;;;;;;;;;6347682;28;20015;-78
2024/01/30 13:53:57;;;;;;;4.57;2.53;;;;;;;;;;6349595;28;20031;-78
2024/01/30 13:56:58;;;;;;;2.93;2.60;;;;;;;;;;6347329;28;20066;-78
2024/01/30 13:59:58;;;;;;;3.60;2.77;;;;;;;;;;6330029;28;20042;-78
2024/01/30 14:02:58;;;;;;;3.87;2.90;;;;;;;;;;6348237;28;20030;-78
2024/01/30 14:05:59;;;;;;;4.57;2.97;;;;;;;;;;6319700;28;20114;-79
2024/01/30 14:08:59;;;;;;;3.63;2.90;;;;;;;;;;6348497;28;20027;-78
2024/01/30 14:12:00;;;;;;;3.37;2.77;;;;;;;;;;6333343;28;20281;-78
2024/01/30 14:15:00;;;;;;;3.53;2.57;;;;;;;;;;6320669;28;20056;-78
2024/01/30 14:18:00;;;;;;;2.60;2.27;;;;;;;;;;6345902;28;20020;-78
2024/01/30 14:21:00;;;;;;;3.80;2.83;;;;;;;;;;6347079;28;20027;-79
2024/01/30 14:24:01;;;;;;;3.70;3.00;;;;;;;;;;6346365;28;20376;-78
2024/01/30 14:27:01;;;;;;;4.43;2.87;;;;;;;;;;6332618;28;20461;-78
2024/01/30 14:30:02;;;;;;;3.37;2.63;;;;;;;;;;6343776;28;20019;-78
2024/01/30 14:33:03;;;;;;;5.03;2.70;;;;;;;;;;6347368;28;20019;-78
2024/01/30 14:36:03;;;;;;;3.93;2.80;;;;;;;;;;6329488;28;20396;-78
2024/01/30 14:39:04;;;;;;;4.67;2.60;;;;;;;;;;6350120;28;20044;-78
2024/01/30 14:42:04;;;;;;;3.27;2.57;;;;;;;;;;6348066;28;20027;-77
2024/01/30 14:45:05;;;;;;;3.43;2.43;;;;;;;;;;6350124;28;20098;-77
2024/01/30 14:48:06;;;;;;;3.67;2.40;;;;;;;;;;6349165;28;20104;-78
2024/01/30 14:51:06;;;;;;;4.13;2.63;;;;;;;;;;6348698;28;20024;-77
2024/01/30 14:54:07;;;;;;;3.03;2.13;;;;;;;;;;6347110;28;20487;-78
2024/01/30 14:57:08;;;;;;;4.90;2.50;;;;;;;;;;6348582;28;20102;-77
2024/01/30 15:00:09;;;;;;;;;;;;;;;;;;6325783;28;20046;-78
2024/01/30 15:03:09;;;;;;;3.87;2.27;;;;;;;;;;6342834;28;20287;-78
2024/01/30 15:06:09;;;;;;;3.47;2.20;;;;;;;;;;6336165;28;20023;-77
2024/01/30 15:09:10;;;;;;;3.73;2.53;;;;;;;;;;6321657;28;20544;-77
2024/01/30 15:12:10;;;;;;;3.10;2.50;;;;;;;;;;6331041;28;20127;-77
2024/01/30 15:15:11;;;;;;;4.60;2.63;;;;;;;;;;6349691;28;20296;-77
2024/01/30 15:18:11;;;;;;;3.00;2.37;;;;;;;;;;6350859;27;20030;-78
2024/01/30 15:21:11;;;;;;;4.30;2.77;;;;;;;;;;6351381;28;20525;-78
2024/01/30 15:24:14;;;;;;;3.20;2.40;;;;;;;;;;6349701;28;20102;-78
2024/01/30 15:27:15;;;;;;;3.42;2.50;;;;;;;;;;6351207;28;20024;-77
2024/01/30 15:30:15;;;;;;;3.60;2.73;;;;;;;;;;6350109;28;20412;-77
2024/01/30 15:33:15;;;;;;;3.67;2.77;;;;;;;;;;6350356;28;20039;-78
2024/01/30 15:36:16;;;;;;;6.13;2.47;;;;;;;;;;6350260;28;20140;-78
2024/01/30 15:39:17;;;;;;;3.80;2.40;;;;;;;;;;6349905;28;20039;-77
2024/01/30 15:42:17;;;;;;;4.30;2.53;;;;;;;;;;6349318;28;20503;-77
2024/01/30 15:45:17;;;;;;;2.80;2.43;;;;;;;;;;6347301;28;20035;-77
2024/01/30 15:48:21;;;;;;;2.60;2.33;;;;;;;;;;6350114;28;20035;-77
2024/01/30 15:51:21;;;;;;;3.15;2.25;;;;;;;;;;6349368;28;20023;-78
2024/01/30 15:54:22;;;;;;;3.97;2.30;;;;;;;;;;6350291;28;20387;-77
2024/01/30 15:57:22;;;;;;;2.88;2.35;;;;;;;;;;6334999;28;20024;-77
2024/01/30 16:00:23;;;;;;;3.47;2.40;;;;;;;;;;6347913;28;20046;-78
2024/01/30 16:03:23;;;;;;;3.60;2.60;;;;;;;;;;6350203;28;20019;-78
2024/01/30 16:06:23;;;;;;;3.00;2.50;;;;;;;;;;6337876;28;20027;-78
2024/01/30 16:09:23;;;;;;;2.87;2.57;;;;;;;;;;6350168;28;20110;-78
2024/01/30 16:12:24;;;;;;;4.10;2.60;;;;;;;;;;6349051;28;20048;-78
2024/01/30 16:15:24;;;;;;;4.57;2.57;;;;;;;;;;6350499;28;20103;-77
2024/01/30 16:18:26;;;;;;;2.87;2.43;;;;;;;;;;6347757;28;20026;-78
2024/01/30 16:21:27;;;;;;;3.00;2.33;;;;;;;;;;6348782;28;20382;-77
2024/01/30 16:24:27;;;;;;;4.27;2.30;;;;;;;;;;6347324;28;20031;-78
2024/01/30 16:27:28;;;;;;;4.53;2.77;;;;;;;;;;6351598;28;20214;-77
2024/01/30 16:30:28;;;;;;;4.35;2.88;;;;;;;;;;6348071;28;20032;-78
2024/01/30 16:33:32;;;;;;;3.50;2.70;;;;;;;;;;6349895;28;20050;-78
2024/01/30 16:36:32;;;;;;;4.43;2.70;;;;;;;;;;6348567;28;20027;-78
2024/01/30 16:39:32;;;;;;;5.97;2.50;;;;;;;;;;6341557;28;20028;-77
2024/01/30 16:42:33;;;;;;;3.60;2.63;;;;;;;;;;6333306;28;20498;-79
2024/01/30 16:45:33;;;;;;;5.20;2.60;;;;;;;;;;6347096;28;20055;-76
2024/01/30 16:48:33;;;;;;;4.63;2.87;;;;;;;;;;6349428;28;20016;-77
2024/01/30 16:51:33;;;;;;;4.80;2.77;;;;;;;;;;6348486;28;20366;-79
2024/01/30 16:54:34;;;;;;;4.13;2.90;;;;;;;;;;6346582;28;20012;-78
2024/01/30 16:57:34;;;;;;;4.00;2.53;;;;;;;;;;6349883;28;20028;-79
2024/01/30 17:00:34;;;;;;;5.00;2.77;;;;;;;;;;6331401;28;20027;-78
2024/01/30 17:03:35;;;;;;;4.80;2.97;;;;;;;;;;6347923;28;20080;-78
2024/01/30 17:06:35;;;;;;;4.57;2.73;;;;;;;;;;6331362;28;20024;-78
2024/01/30 17:09:35;;;;;;;4.40;2.60;;;;;;;;;;6348674;28;20043;-77
2024/01/30 17:12:36;;;;;;;4.13;2.60;;;;;;;;;;6345696;28;20396;-78
2024/01/30 17:15:36;;;;;;;4.30;2.70;;;;;;;;;;6347603;28;20103;-78
2024/01/30 17:18:36;;;;;;;3.80;2.27;;;;;;;;;;6344627;28;20068;-79
2024/01/30 17:21:37;;;;;;;3.90;2.93;;;;;;;;;;6347967;28;20464;-78
2024/01/30 17:24:37;;;;;;;4.83;2.83;;;;;;;;;;6330433;28;20028;-79
2024/01/30 17:27:37;;;;;;;3.60;2.40;;;;;;;;;;6330291;28;20035;-79
2024/01/30 17:30:38;;;;;;;3.37;2.37;;;;;;;;;;6348480;28;20032;-78
2024/01/30 17:33:38;;;;;;;3.97;2.73;;;;;;;;;;6345447;28;20102;-78
2024/01/30 17:36:39;;;;;;;5.23;2.83;;;;;;;;;;6331440;28;20059;-78
2024/01/30 17:39:39;;;;;;;3.37;2.60;;;;;;;;;;6347282;28;20036;-78
2024/01/30 17:42:39;;;;;;;3.17;2.57;;;;;;;;;;6346878;28;20027;-78
2024/01/30 17:45:39;;;;;;;3.73;2.20;;;;;;;;;;6346529;28;20065;-79
2024/01/30 17:48:40;;;;;;;4.30;2.70;;;;;;;;;;6339261;28;20015;-77
2024/01/30 17:51:41;;;;;;;4.97;2.37;;;;;;;;;;6343588;28;20024;-75
2024/01/30 17:54:41;;;;;;;3.92;2.63;;;;;;;;;;6322962;28;20039;-78
2024/01/30 17:57:42;;;;;;;4.23;2.73;;;;;;;;;;6330937;28;20362;-78
2024/01/30 18:00:42;;;;;;;3.78;2.60;;;;;;;;;;6345492;28;20514;-76
2024/01/30 18:03:43;;;;;;;3.87;2.50;;;;;;;;;;6345067;28;20093;-77
2024/01/30 18:06:48;;;;;;;2.70;2.40;;;;;;;;;;6346653;28;20081;-76
2024/01/30 18:09:48;;;;;;;3.95;2.97;;;;;;;;;;6324656;28;20035;-77